sensor_id;sensor_type;location;lat;lon;timestamp;P1;durP1;ratioP1;P2;durP2;ratioP2
15645;SDS011;7922;43.622;1.476;2022-10-16T00:00:42;9.43;;;7.83;;
15645;SDS011;7922;43.622;1.476;2022-10-16T00:03:08;8.40;;;7.60;;
15645;SDS011;7922;43.622;1.476;2022-10-16T00:05:39;8.30;;;7.60;;
15645;SDS011;7922;43.622;1.476;2022-10-16T00:08:05;8.43;;;7.63;;
15645;SDS011;7922;43.622;1.476;2022-10-16T00:10:31;7.93;;;7.33;;
15645;SDS011;7922;43.622;1.476;2022-10-16T00:12:56;8.47;;;7.67;;
15645;SDS011;7922;43.622;1.476;2022-10-16T00:15:22;9.30;;;7.70;;
15645;SDS011;7922;43.622;1.476;2022-10-16T00:17:47;8.70;;;7.67;;
15645;SDS011;7922;43.622;1.476;2022-10-16T00:20:13;7.97;;;7.27;;
15645;SDS011;7922;43.622;1.476;2022-10-16T00:22:38;8.83;;;8.03;;
15645;SDS011;7922;43.622;1.476;2022-10-16T00:25:03;9.53;;;7.53;;
15645;SDS011;7922;43.622;1.476;2022-10-16T00:27:29;11.00;;;7.70;;
15645;SDS011;7922;43.622;1.476;2022-10-16T00:29:54;9.33;;;8.40;;
15645;SDS011;7922;43.622;1.476;2022-10-16T00:32:20;10.00;;;8.50;;
15645;SDS011;7922;43.622;1.476;2022-10-16T00:34:46;9.13;;;8.23;;
15645;SDS011;7922;43.622;1.476;2022-10-16T00:37:11;9.30;;;7.90;;
15645;SDS011;7922;43.622;1.476;2022-10-16T00:39:37;9.60;;;8.53;;
15645;SDS011;7922;43.622;1.476;2022-10-16T00:42:03;9.63;;;8.73;;
15645;SDS011;7922;43.622;1.476;2022-10-16T00:44:45;9.43;;;7.87;;
15645;SDS011;7922;43.622;1.476;2022-10-16T00:49:56;8.90;;;8.00;;
15645;SDS011;7922;43.622;1.476;2022-10-16T00:52:25;8.83;;;7.93;;
15645;SDS011;7922;43.622;1.476;2022-10-16T00:54:51;9.30;;;8.33;;
15645;SDS011;7922;43.622;1.476;2022-10-16T00:57:17;8.63;;;7.83;;
15645;SDS011;7922;43.622;1.476;2022-10-16T00:59:43;10.17;;;8.67;;
15645;SDS011;7922;43.622;1.476;2022-10-16T01:02:10;9.33;;;8.30;;
15645;SDS011;7922;43.622;1.476;2022-10-16T01:04:39;9.13;;;7.60;;
15645;SDS011;7922;43.622;1.476;2022-10-16T01:09:55;9.00;;;8.10;;
15645;SDS011;7922;43.622;1.476;2022-10-16T01:12:33;9.93;;;8.63;;
15645;SDS011;7922;43.622;1.476;2022-10-16T01:20:40;9.87;;;8.80;;
15645;SDS011;7922;43.622;1.476;2022-10-16T01:28:56;8.50;;;7.63;;
15645;SDS011;7922;43.622;1.476;2022-10-16T01:31:25;9.13;;;7.73;;
15645;SDS011;7922;43.622;1.476;2022-10-16T01:34:15;10.47;;;8.30;;
15645;SDS011;7922;43.622;1.476;2022-10-16T01:36:41;9.60;;;7.87;;
15645;SDS011;7922;43.622;1.476;2022-10-16T01:39:10;9.63;;;8.57;;
15645;SDS011;7922;43.622;1.476;2022-10-16T01:41:43;8.57;;;7.87;;
15645;SDS011;7922;43.622;1.476;2022-10-16T01:44:13;9.07;;;8.27;;
15645;SDS011;7922;43.622;1.476;2022-10-16T01:46:41;8.47;;;7.70;;
15645;SDS011;7922;43.622;1.476;2022-10-16T01:49:08;10.53;;;8.50;;
15645;SDS011;7922;43.622;1.476;2022-10-16T01:51:34;10.67;;;8.30;;
15645;SDS011;7922;43.622;1.476;2022-10-16T01:54:01;10.60;;;8.70;;
15645;SDS011;7922;43.622;1.476;2022-10-16T01:56:27;10.53;;;9.13;;
15645;SDS011;7922;43.622;1.476;2022-10-16T02:01:50;8.53;;;7.73;;
15645;SDS011;7922;43.622;1.476;2022-10-16T02:04:22;9.00;;;8.10;;
15645;SDS011;7922;43.622;1.476;2022-10-16T02:06:50;9.90;;;8.83;;
15645;SDS011;7922;43.622;1.476;2022-10-16T02:09:15;11.83;;;8.67;;
15645;SDS011;7922;43.622;1.476;2022-10-16T02:11:42;9.97;;;8.97;;
15645;SDS011;7922;43.622;1.476;2022-10-16T02:14:08;9.80;;;8.80;;
15645;SDS011;7922;43.622;1.476;2022-10-16T02:16:34;10.13;;;9.13;;
15645;SDS011;7922;43.622;1.476;2022-10-16T02:19:04;9.90;;;8.87;;
15645;SDS011;7922;43.622;1.476;2022-10-16T02:21:33;10.27;;;9.20;;
15645;SDS011;7922;43.622;1.476;2022-10-16T02:26:36;9.93;;;8.63;;
15645;SDS011;7922;43.622;1.476;2022-10-16T02:29:07;9.83;;;8.83;;
15645;SDS011;7922;43.622;1.476;2022-10-16T02:31:38;9.50;;;8.60;;
15645;SDS011;7922;43.622;1.476;2022-10-16T02:34:06;10.57;;;9.10;;
15645;SDS011;7922;43.622;1.476;2022-10-16T02:36:33;10.13;;;9.20;;
15645;SDS011;7922;43.622;1.476;2022-10-16T02:38:59;10.83;;;9.40;;
15645;SDS011;7922;43.622;1.476;2022-10-16T02:41:26;9.67;;;8.70;;
15645;SDS011;7922;43.622;1.476;2022-10-16T02:43:51;11.57;;;10.10;;
15645;SDS011;7922;43.622;1.476;2022-10-16T02:46:17;11.50;;;9.87;;
15645;SDS011;7922;43.622;1.476;2022-10-16T02:48:43;10.90;;;9.80;;
15645;SDS011;7922;43.622;1.476;2022-10-16T02:51:08;11.43;;;10.43;;
15645;SDS011;7922;43.622;1.476;2022-10-16T02:53:33;11.13;;;10.10;;
15645;SDS011;7922;43.622;1.476;2022-10-16T02:55:59;11.20;;;9.90;;
15645;SDS011;7922;43.622;1.476;2022-10-16T02:58:24;12.83;;;10.20;;
15645;SDS011;7922;43.622;1.476;2022-10-16T03:00:49;10.53;;;9.50;;
15645;SDS011;7922;43.622;1.476;2022-10-16T03:03:15;14.30;;;10.70;;
15645;SDS011;7922;43.622;1.476;2022-10-16T03:05:40;12.00;;;10.23;;
15645;SDS011;7922;43.622;1.476;2022-10-16T03:08:08;11.90;;;10.07;;
15645;SDS011;7922;43.622;1.476;2022-10-16T03:10:33;13.30;;;10.40;;
15645;SDS011;7922;43.622;1.476;2022-10-16T03:12:58;12.93;;;10.53;;
15645;SDS011;7922;43.622;1.476;2022-10-16T03:15:24;12.57;;;11.10;;
15645;SDS011;7922;43.622;1.476;2022-10-16T03:17:50;14.90;;;11.70;;
15645;SDS011;7922;43.622;1.476;2022-10-16T03:20:16;11.87;;;10.67;;
15645;SDS011;7922;43.622;1.476;2022-10-16T03:22:41;15.67;;;10.97;;
15645;SDS011;7922;43.622;1.476;2022-10-16T03:25:07;12.03;;;10.83;;
15645;SDS011;7922;43.622;1.476;2022-10-16T03:27:33;11.30;;;10.20;;
15645;SDS011;7922;43.622;1.476;2022-10-16T03:29:58;12.63;;;11.20;;
15645;SDS011;7922;43.622;1.476;2022-10-16T03:32:23;13.37;;;10.93;;
15645;SDS011;7922;43.622;1.476;2022-10-16T03:34:50;12.27;;;11.03;;
15645;SDS011;7922;43.622;1.476;2022-10-16T03:37:15;12.90;;;11.60;;
15645;SDS011;7922;43.622;1.476;2022-10-16T03:39:40;13.23;;;11.83;;
15645;SDS011;7922;43.622;1.476;2022-10-16T03:42:06;13.07;;;11.63;;
15645;SDS011;7922;43.622;1.476;2022-10-16T03:44:32;13.07;;;11.70;;
15645;SDS011;7922;43.622;1.476;2022-10-16T03:46:57;13.70;;;12.30;;
15645;SDS011;7922;43.622;1.476;2022-10-16T03:49:22;15.67;;;11.40;;
15645;SDS011;7922;43.622;1.476;2022-10-16T03:51:48;12.57;;;11.33;;
15645;SDS011;7922;43.622;1.476;2022-10-16T03:54:13;16.30;;;12.90;;
15645;SDS011;7922;43.622;1.476;2022-10-16T03:56:38;13.13;;;11.90;;
15645;SDS011;7922;43.622;1.476;2022-10-16T03:59:04;18.30;;;12.10;;
15645;SDS011;7922;43.622;1.476;2022-10-16T04:01:29;12.93;;;11.60;;
15645;SDS011;7922;43.622;1.476;2022-10-16T04:03:55;14.23;;;12.70;;
15645;SDS011;7922;43.622;1.476;2022-10-16T04:06:20;13.83;;;12.23;;
15645;SDS011;7922;43.622;1.476;2022-10-16T04:08:45;14.23;;;12.37;;
15645;SDS011;7922;43.622;1.476;2022-10-16T04:11:11;14.53;;;12.17;;
15645;SDS011;7922;43.622;1.476;2022-10-16T04:13:36;13.80;;;12.47;;
15645;SDS011;7922;43.622;1.476;2022-10-16T04:16:02;14.40;;;12.90;;
15645;SDS011;7922;43.622;1.476;2022-10-16T04:18:27;12.90;;;11.70;;
15645;SDS011;7922;43.622;1.476;2022-10-16T04:20:53;13.97;;;12.23;;
15645;SDS011;7922;43.622;1.476;2022-10-16T04:23:19;13.37;;;12.07;;
15645;SDS011;7922;43.622;1.476;2022-10-16T04:25:44;12.90;;;11.43;;
15645;SDS011;7922;43.622;1.476;2022-10-16T04:28:09;13.20;;;11.13;;
15645;SDS011;7922;43.622;1.476;2022-10-16T04:30:37;15.90;;;12.20;;
15645;SDS011;7922;43.622;1.476;2022-10-16T04:33:03;15.77;;;12.90;;
15645;SDS011;7922;43.622;1.476;2022-10-16T04:35:28;13.87;;;12.40;;
15645;SDS011;7922;43.622;1.476;2022-10-16T04:37:53;14.73;;;12.33;;
15645;SDS011;7922;43.622;1.476;2022-10-16T04:40:19;13.30;;;11.87;;
15645;SDS011;7922;43.622;1.476;2022-10-16T04:42:44;13.40;;;12.10;;
15645;SDS011;7922;43.622;1.476;2022-10-16T04:45:10;14.23;;;12.77;;
15645;SDS011;7922;43.622;1.476;2022-10-16T04:47:35;15.53;;;11.07;;
15645;SDS011;7922;43.622;1.476;2022-10-16T04:50:00;14.83;;;11.60;;
15645;SDS011;7922;43.622;1.476;2022-10-16T04:52:27;13.83;;;11.80;;
15645;SDS011;7922;43.622;1.476;2022-10-16T04:54:53;15.00;;;11.73;;
15645;SDS011;7922;43.622;1.476;2022-10-16T04:57:19;12.10;;;10.90;;
15645;SDS011;7922;43.622;1.476;2022-10-16T04:59:44;14.53;;;12.57;;
15645;SDS011;7922;43.622;1.476;2022-10-16T05:02:10;13.57;;;12.17;;
15645;SDS011;7922;43.622;1.476;2022-10-16T05:04:35;15.10;;;11.80;;
15645;SDS011;7922;43.622;1.476;2022-10-16T05:07:00;13.73;;;12.33;;
15645;SDS011;7922;43.622;1.476;2022-10-16T05:09:26;13.23;;;12.03;;
15645;SDS011;7922;43.622;1.476;2022-10-16T05:11:51;13.73;;;12.20;;
15645;SDS011;7922;43.622;1.476;2022-10-16T05:14:16;14.23;;;11.83;;
15645;SDS011;7922;43.622;1.476;2022-10-16T05:16:42;13.70;;;11.83;;
15645;SDS011;7922;43.622;1.476;2022-10-16T05:19:07;13.27;;;11.87;;
15645;SDS011;7922;43.622;1.476;2022-10-16T05:21:32;13.43;;;12.13;;
15645;SDS011;7922;43.622;1.476;2022-10-16T05:23:58;12.80;;;11.40;;
15645;SDS011;7922;43.622;1.476;2022-10-16T05:26:23;14.10;;;12.03;;
15645;SDS011;7922;43.622;1.476;2022-10-16T05:28:49;13.57;;;11.70;;
15645;SDS011;7922;43.622;1.476;2022-10-16T05:31:14;12.90;;;11.53;;
15645;SDS011;7922;43.622;1.476;2022-10-16T05:33:40;14.17;;;12.67;;
15645;SDS011;7922;43.622;1.476;2022-10-16T05:36:06;14.73;;;11.90;;
15645;SDS011;7922;43.622;1.476;2022-10-16T05:38:33;14.90;;;11.80;;
15645;SDS011;7922;43.622;1.476;2022-10-16T05:40:59;12.07;;;10.97;;
15645;SDS011;7922;43.622;1.476;2022-10-16T05:43:24;12.63;;;11.33;;
15645;SDS011;7922;43.622;1.476;2022-10-16T05:46:00;14.00;;;11.70;;
15645;SDS011;7922;43.622;1.476;2022-10-16T05:48:28;12.90;;;11.70;;
15645;SDS011;7922;43.622;1.476;2022-10-16T05:51:01;12.33;;;11.03;;
15645;SDS011;7922;43.622;1.476;2022-10-16T05:53:28;13.53;;;11.73;;
15645;SDS011;7922;43.622;1.476;2022-10-16T05:55:55;17.03;;;11.43;;
15645;SDS011;7922;43.622;1.476;2022-10-16T05:58:21;14.53;;;11.77;;
15645;SDS011;7922;43.622;1.476;2022-10-16T06:00:54;12.87;;;11.07;;
15645;SDS011;7922;43.622;1.476;2022-10-16T06:03:27;14.93;;;11.37;;
15645;SDS011;7922;43.622;1.476;2022-10-16T06:05:52;12.80;;;11.40;;
15645;SDS011;7922;43.622;1.476;2022-10-16T06:08:19;15.40;;;11.93;;
15645;SDS011;7922;43.622;1.476;2022-10-16T06:10:45;13.03;;;11.67;;
15645;SDS011;7922;43.622;1.476;2022-10-16T06:13:11;15.30;;;12.17;;
15645;SDS011;7922;43.622;1.476;2022-10-16T06:15:37;13.33;;;11.50;;
15645;SDS011;7922;43.622;1.476;2022-10-16T06:18:04;18.80;;;12.10;;
15645;SDS011;7922;43.622;1.476;2022-10-16T06:20:30;12.60;;;11.30;;
15645;SDS011;7922;43.622;1.476;2022-10-16T06:22:55;12.53;;;11.23;;
15645;SDS011;7922;43.622;1.476;2022-10-16T06:25:22;13.90;;;11.60;;
15645;SDS011;7922;43.622;1.476;2022-10-16T06:27:47;12.83;;;11.73;;
15645;SDS011;7922;43.622;1.476;2022-10-16T06:30:12;14.83;;;11.83;;
15645;SDS011;7922;43.622;1.476;2022-10-16T06:32:38;12.90;;;11.57;;
15645;SDS011;7922;43.622;1.476;2022-10-16T06:35:03;13.83;;;12.23;;
15645;SDS011;7922;43.622;1.476;2022-10-16T06:37:29;13.90;;;11.10;;
15645;SDS011;7922;43.622;1.476;2022-10-16T06:39:54;16.97;;;12.40;;
15645;SDS011;7922;43.622;1.476;2022-10-16T06:42:20;16.40;;;11.20;;
15645;SDS011;7922;43.622;1.476;2022-10-16T06:44:45;15.27;;;11.93;;
15645;SDS011;7922;43.622;1.476;2022-10-16T06:47:10;13.50;;;12.27;;
15645;SDS011;7922;43.622;1.476;2022-10-16T06:49:36;15.40;;;13.33;;
15645;SDS011;7922;43.622;1.476;2022-10-16T06:52:01;15.13;;;12.17;;
15645;SDS011;7922;43.622;1.476;2022-10-16T06:54:27;13.20;;;11.50;;
15645;SDS011;7922;43.622;1.476;2022-10-16T06:56:53;13.00;;;11.70;;
15645;SDS011;7922;43.622;1.476;2022-10-16T06:59:19;14.47;;;11.97;;
15645;SDS011;7922;43.622;1.476;2022-10-16T07:01:47;13.13;;;11.70;;
15645;SDS011;7922;43.622;1.476;2022-10-16T07:04:13;13.30;;;11.13;;
15645;SDS011;7922;43.622;1.476;2022-10-16T07:06:38;14.30;;;11.20;;
15645;SDS011;7922;43.622;1.476;2022-10-16T07:09:05;17.80;;;11.57;;
15645;SDS011;7922;43.622;1.476;2022-10-16T07:11:32;12.50;;;11.13;;
15645;SDS011;7922;43.622;1.476;2022-10-16T07:13:58;15.63;;;11.33;;
15645;SDS011;7922;43.622;1.476;2022-10-16T07:16:25;13.10;;;10.93;;
15645;SDS011;7922;43.622;1.476;2022-10-16T07:18:53;12.10;;;10.47;;
15645;SDS011;7922;43.622;1.476;2022-10-16T07:21:23;16.20;;;10.67;;
15645;SDS011;7922;43.622;1.476;2022-10-16T07:23:51;11.73;;;10.63;;
15645;SDS011;7922;43.622;1.476;2022-10-16T07:26:17;11.87;;;10.77;;
15645;SDS011;7922;43.622;1.476;2022-10-16T07:28:43;13.57;;;11.10;;
15645;SDS011;7922;43.622;1.476;2022-10-16T07:31:10;10.97;;;9.83;;
15645;SDS011;7922;43.622;1.476;2022-10-16T07:33:38;11.83;;;10.73;;
15645;SDS011;7922;43.622;1.476;2022-10-16T07:36:04;12.60;;;10.33;;
15645;SDS011;7922;43.622;1.476;2022-10-16T07:38:30;12.97;;;10.30;;
15645;SDS011;7922;43.622;1.476;2022-10-16T07:40:58;11.03;;;9.60;;
15645;SDS011;7922;43.622;1.476;2022-10-16T07:43:25;11.23;;;10.13;;
15645;SDS011;7922;43.622;1.476;2022-10-16T07:45:50;12.20;;;10.07;;
15645;SDS011;7922;43.622;1.476;2022-10-16T07:48:16;10.90;;;9.47;;
15645;SDS011;7922;43.622;1.476;2022-10-16T07:50:42;11.00;;;9.90;;
15645;SDS011;7922;43.622;1.476;2022-10-16T07:53:08;10.30;;;9.30;;
15645;SDS011;7922;43.622;1.476;2022-10-16T07:55:34;11.83;;;9.97;;
15645;SDS011;7922;43.622;1.476;2022-10-16T07:57:59;12.47;;;9.17;;
15645;SDS011;7922;43.622;1.476;2022-10-16T08:00:25;10.90;;;9.77;;
15645;SDS011;7922;43.622;1.476;2022-10-16T08:02:50;10.40;;;9.30;;
15645;SDS011;7922;43.622;1.476;2022-10-16T08:05:16;10.83;;;9.67;;
15645;SDS011;7922;43.622;1.476;2022-10-16T08:07:41;10.07;;;9.07;;
15645;SDS011;7922;43.622;1.476;2022-10-16T08:10:09;12.00;;;8.90;;
15645;SDS011;7922;43.622;1.476;2022-10-16T08:12:41;10.07;;;9.10;;
15645;SDS011;7922;43.622;1.476;2022-10-16T08:15:07;10.30;;;9.30;;
15645;SDS011;7922;43.622;1.476;2022-10-16T08:17:33;10.10;;;9.10;;
15645;SDS011;7922;43.622;1.476;2022-10-16T08:19:58;13.47;;;9.17;;
15645;SDS011;7922;43.622;1.476;2022-10-16T08:22:23;11.10;;;10.00;;
15645;SDS011;7922;43.622;1.476;2022-10-16T08:24:49;13.20;;;10.60;;
15645;SDS011;7922;43.622;1.476;2022-10-16T08:27:14;11.53;;;10.20;;
15645;SDS011;7922;43.622;1.476;2022-10-16T08:29:39;11.90;;;10.23;;
15645;SDS011;7922;43.622;1.476;2022-10-16T08:32:05;11.77;;;10.63;;
15645;SDS011;7922;43.622;1.476;2022-10-16T08:34:31;11.73;;;10.63;;
15645;SDS011;7922;43.622;1.476;2022-10-16T08:36:56;11.57;;;10.37;;
15645;SDS011;7922;43.622;1.476;2022-10-16T08:39:21;13.87;;;10.90;;
15645;SDS011;7922;43.622;1.476;2022-10-16T08:44:41;13.30;;;9.90;;
15645;SDS011;7922;43.622;1.476;2022-10-16T08:47:13;11.73;;;10.60;;
15645;SDS011;7922;43.622;1.476;2022-10-16T08:52:34;17.90;;;10.37;;
15645;SDS011;7922;43.622;1.476;2022-10-16T08:55:00;11.80;;;9.43;;
15645;SDS011;7922;43.622;1.476;2022-10-16T08:57:26;12.83;;;9.57;;
15645;SDS011;7922;43.622;1.476;2022-10-16T08:59:53;10.27;;;9.13;;
15645;SDS011;7922;43.622;1.476;2022-10-16T09:02:32;10.30;;;9.13;;
15645;SDS011;7922;43.622;1.476;2022-10-16T09:05:21;10.60;;;8.80;;
15645;SDS011;7922;43.622;1.476;2022-10-16T09:23:52;12.87;;;8.73;;
15645;SDS011;7922;43.622;1.476;2022-10-16T09:26:19;14.50;;;8.40;;
15645;SDS011;7922;43.622;1.476;2022-10-16T09:28:46;11.57;;;7.77;;
15645;SDS011;7922;43.622;1.476;2022-10-16T09:31:13;8.47;;;7.47;;
15645;SDS011;7922;43.622;1.476;2022-10-16T09:33:41;10.43;;;7.67;;
15645;SDS011;7922;43.622;1.476;2022-10-16T09:36:08;11.17;;;7.73;;
15645;SDS011;7922;43.622;1.476;2022-10-16T09:38:34;13.10;;;7.73;;
15645;SDS011;7922;43.622;1.476;2022-10-16T09:41:02;8.37;;;7.60;;
15645;SDS011;7922;43.622;1.476;2022-10-16T09:43:38;10.10;;;6.77;;
15645;SDS011;7922;43.622;1.476;2022-10-16T09:46:06;10.80;;;7.13;;
15645;SDS011;7922;43.622;1.476;2022-10-16T09:48:36;9.27;;;6.87;;
15645;SDS011;7922;43.622;1.476;2022-10-16T09:51:04;9.30;;;6.83;;
15645;SDS011;7922;43.622;1.476;2022-10-16T09:53:41;7.90;;;6.20;;
15645;SDS011;7922;43.622;1.476;2022-10-16T09:56:11;8.63;;;6.60;;
15645;SDS011;7922;43.622;1.476;2022-10-16T09:58:49;9.33;;;6.93;;
15645;SDS011;7922;43.622;1.476;2022-10-16T10:01:19;13.77;;;7.37;;
15645;SDS011;7922;43.622;1.476;2022-10-16T10:03:46;8.40;;;6.23;;
15645;SDS011;7922;43.622;1.476;2022-10-16T10:08:56;8.83;;;5.77;;
15645;SDS011;7922;43.622;1.476;2022-10-16T10:11:39;8.70;;;6.57;;
15645;SDS011;7922;43.622;1.476;2022-10-16T10:14:08;7.27;;;5.83;;
15645;SDS011;7922;43.622;1.476;2022-10-16T10:16:43;6.30;;;5.80;;
15645;SDS011;7922;43.622;1.476;2022-10-16T10:19:15;8.20;;;6.07;;
15645;SDS011;7922;43.622;1.476;2022-10-16T10:21:45;7.87;;;6.33;;
15645;SDS011;7922;43.622;1.476;2022-10-16T10:24:15;6.80;;;5.90;;
15645;SDS011;7922;43.622;1.476;2022-10-16T10:26:46;7.10;;;6.37;;
15645;SDS011;7922;43.622;1.476;2022-10-16T10:34:29;8.13;;;6.03;;
15645;SDS011;7922;43.622;1.476;2022-10-16T10:37:16;8.47;;;5.50;;
15645;SDS011;7922;43.622;1.476;2022-10-16T10:39:50;7.77;;;5.70;;
15645;SDS011;7922;43.622;1.476;2022-10-16T10:42:51;8.03;;;5.50;;
15645;SDS011;7922;43.622;1.476;2022-10-16T10:45:24;8.93;;;5.57;;
15645;SDS011;7922;43.622;1.476;2022-10-16T10:50:54;9.77;;;5.37;;
15645;SDS011;7922;43.622;1.476;2022-10-16T11:07:18;6.10;;;4.70;;
15645;SDS011;7922;43.622;1.476;2022-10-16T11:09:57;6.77;;;5.00;;
15645;SDS011;7922;43.622;1.476;2022-10-16T11:12:34;6.50;;;5.17;;
15645;SDS011;7922;43.622;1.476;2022-10-16T11:15:21;7.13;;;4.57;;
15645;SDS011;7922;43.622;1.476;2022-10-16T11:20:30;7.97;;;5.00;;
15645;SDS011;7922;43.622;1.476;2022-10-16T11:23:21;6.83;;;5.03;;
15645;SDS011;7922;43.622;1.476;2022-10-16T11:25:45;8.20;;;4.40;;
15645;SDS011;7922;43.622;1.476;2022-10-16T11:28:29;5.80;;;4.97;;
15645;SDS011;7922;43.622;1.476;2022-10-16T11:31:03;9.13;;;5.30;;
15645;SDS011;7922;43.622;1.476;2022-10-16T11:33:40;7.27;;;4.73;;
15645;SDS011;7922;43.622;1.476;2022-10-16T11:39:35;11.20;;;4.90;;
15645;SDS011;7922;43.622;1.476;2022-10-16T11:41:59;6.10;;;4.43;;
15645;SDS011;7922;43.622;1.476;2022-10-16T11:49:32;6.90;;;4.47;;
15645;SDS011;7922;43.622;1.476;2022-10-16T11:57:38;8.60;;;4.90;;
15645;SDS011;7922;43.622;1.476;2022-10-16T12:08:22;5.50;;;4.17;;
15645;SDS011;7922;43.622;1.476;2022-10-16T12:10:48;6.93;;;3.97;;
15645;SDS011;7922;43.622;1.476;2022-10-16T12:18:32;6.03;;;4.07;;
15645;SDS011;7922;43.622;1.476;2022-10-16T12:20:57;6.00;;;4.23;;
15645;SDS011;7922;43.622;1.476;2022-10-16T12:23:29;7.40;;;4.30;;
15645;SDS011;7922;43.622;1.476;2022-10-16T12:25:55;9.87;;;4.60;;
15645;SDS011;7922;43.622;1.476;2022-10-16T12:28:22;8.47;;;4.27;;
15645;SDS011;7922;43.622;1.476;2022-10-16T12:30:53;6.10;;;4.10;;
15645;SDS011;7922;43.622;1.476;2022-10-16T12:33:37;6.10;;;3.83;;
15645;SDS011;7922;43.622;1.476;2022-10-16T12:36:15;4.73;;;3.73;;
15645;SDS011;7922;43.622;1.476;2022-10-16T12:38:51;5.00;;;3.40;;
15645;SDS011;7922;43.622;1.476;2022-10-16T12:41:24;4.17;;;3.43;;
15645;SDS011;7922;43.622;1.476;2022-10-16T12:43:53;9.90;;;3.67;;
15645;SDS011;7922;43.622;1.476;2022-10-16T12:48:44;5.50;;;3.30;;
15645;SDS011;7922;43.622;1.476;2022-10-16T12:51:11;6.73;;;3.73;;
15645;SDS011;7922;43.622;1.476;2022-10-16T12:53:38;6.70;;;3.10;;
15645;SDS011;7922;43.622;1.476;2022-10-16T13:01:22;5.87;;;3.20;;
15645;SDS011;7922;43.622;1.476;2022-10-16T13:20:33;6.33;;;2.80;;
15645;SDS011;7922;43.622;1.476;2022-10-16T13:23:15;5.47;;;3.00;;
15645;SDS011;7922;43.622;1.476;2022-10-16T13:28:31;6.17;;;2.90;;
15645;SDS011;7922;43.622;1.476;2022-10-16T13:30:58;5.77;;;2.70;;
15645;SDS011;7922;43.622;1.476;2022-10-16T13:33:30;5.73;;;2.40;;
15645;SDS011;7922;43.622;1.476;2022-10-16T13:35:57;6.50;;;2.60;;
15645;SDS011;7922;43.622;1.476;2022-10-16T13:38:23;4.13;;;2.47;;
15645;SDS011;7922;43.622;1.476;2022-10-16T13:40:57;4.57;;;2.97;;
15645;SDS011;7922;43.622;1.476;2022-10-16T13:43:27;7.03;;;2.63;;
15645;SDS011;7922;43.622;1.476;2022-10-16T13:45:54;4.67;;;2.77;;
15645;SDS011;7922;43.622;1.476;2022-10-16T13:48:27;6.97;;;2.97;;
15645;SDS011;7922;43.622;1.476;2022-10-16T13:51:12;5.40;;;3.20;;
15645;SDS011;7922;43.622;1.476;2022-10-16T13:53:39;3.30;;;2.47;;
15645;SDS011;7922;43.622;1.476;2022-10-16T13:56:07;6.43;;;2.63;;
15645;SDS011;7922;43.622;1.476;2022-10-16T13:58:36;6.90;;;2.67;;
15645;SDS011;7922;43.622;1.476;2022-10-16T14:01:22;4.23;;;2.60;;
15645;SDS011;7922;43.622;1.476;2022-10-16T14:03:50;4.03;;;2.63;;
15645;SDS011;7922;43.622;1.476;2022-10-16T14:06:17;5.93;;;2.70;;
15645;SDS011;7922;43.622;1.476;2022-10-16T14:08:50;7.33;;;2.73;;
15645;SDS011;7922;43.622;1.476;2022-10-16T14:11:21;7.03;;;2.90;;
15645;SDS011;7922;43.622;1.476;2022-10-16T14:13:51;4.53;;;2.60;;
15645;SDS011;7922;43.622;1.476;2022-10-16T14:16:17;4.83;;;2.70;;
15645;SDS011;7922;43.622;1.476;2022-10-16T14:19:20;7.63;;;2.70;;
15645;SDS011;7922;43.622;1.476;2022-10-16T14:21:44;8.67;;;2.80;;
15645;SDS011;7922;43.622;1.476;2022-10-16T14:24:10;7.33;;;2.93;;
15645;SDS011;7922;43.622;1.476;2022-10-16T14:26:40;4.20;;;2.83;;
15645;SDS011;7922;43.622;1.476;2022-10-16T14:29:11;7.67;;;2.60;;
15645;SDS011;7922;43.622;1.476;2022-10-16T14:31:39;5.83;;;2.83;;
15645;SDS011;7922;43.622;1.476;2022-10-16T14:34:22;6.83;;;3.07;;
15645;SDS011;7922;43.622;1.476;2022-10-16T14:36:49;4.30;;;2.67;;
15645;SDS011;7922;43.622;1.476;2022-10-16T14:39:18;17.40;;;3.63;;
15645;SDS011;7922;43.622;1.476;2022-10-16T14:41:45;7.10;;;2.97;;
15645;SDS011;7922;43.622;1.476;2022-10-16T14:44:12;4.37;;;2.70;;
15645;SDS011;7922;43.622;1.476;2022-10-16T14:46:39;6.40;;;2.63;;
15645;SDS011;7922;43.622;1.476;2022-10-16T14:51:37;6.97;;;2.93;;
15645;SDS011;7922;43.622;1.476;2022-10-16T14:54:07;6.67;;;3.10;;
15645;SDS011;7922;43.622;1.476;2022-10-16T14:56:47;5.50;;;2.80;;
15645;SDS011;7922;43.622;1.476;2022-10-16T14:59:19;6.00;;;2.60;;
15645;SDS011;7922;43.622;1.476;2022-10-16T15:01:57;4.53;;;3.00;;
15645;SDS011;7922;43.622;1.476;2022-10-16T15:04:22;4.80;;;2.70;;
15645;SDS011;7922;43.622;1.476;2022-10-16T15:06:47;8.83;;;2.73;;
15645;SDS011;7922;43.622;1.476;2022-10-16T15:09:13;6.80;;;3.10;;
15645;SDS011;7922;43.622;1.476;2022-10-16T15:11:38;5.20;;;3.00;;
15645;SDS011;7922;43.622;1.476;2022-10-16T15:14:04;7.57;;;2.97;;
15645;SDS011;7922;43.622;1.476;2022-10-16T15:16:30;6.37;;;3.60;;
15645;SDS011;7922;43.622;1.476;2022-10-16T15:18:56;6.23;;;2.97;;
15645;SDS011;7922;43.622;1.476;2022-10-16T15:23:51;4.90;;;2.77;;
15645;SDS011;7922;43.622;1.476;2022-10-16T15:26:16;5.60;;;2.73;;
15645;SDS011;7922;43.622;1.476;2022-10-16T15:28:42;7.93;;;3.27;;
15645;SDS011;7922;43.622;1.476;2022-10-16T15:31:07;5.60;;;2.80;;
15645;SDS011;7922;43.622;1.476;2022-10-16T15:33:33;5.50;;;3.00;;
15645;SDS011;7922;43.622;1.476;2022-10-16T15:36:00;9.17;;;3.10;;
15645;SDS011;7922;43.622;1.476;2022-10-16T15:38:26;4.87;;;2.97;;
15645;SDS011;7922;43.622;1.476;2022-10-16T15:40:52;8.27;;;3.07;;
15645;SDS011;7922;43.622;1.476;2022-10-16T15:43:18;6.60;;;3.20;;
15645;SDS011;7922;43.622;1.476;2022-10-16T15:45:44;4.87;;;2.60;;
15645;SDS011;7922;43.622;1.476;2022-10-16T15:48:10;6.23;;;3.10;;
15645;SDS011;7922;43.622;1.476;2022-10-16T15:50:38;3.87;;;2.57;;
15645;SDS011;7922;43.622;1.476;2022-10-16T15:53:03;5.73;;;2.90;;
15645;SDS011;7922;43.622;1.476;2022-10-16T15:55:29;8.23;;;3.10;;
15645;SDS011;7922;43.622;1.476;2022-10-16T15:57:54;8.53;;;3.27;;
15645;SDS011;7922;43.622;1.476;2022-10-16T16:00:20;6.27;;;2.93;;
15645;SDS011;7922;43.622;1.476;2022-10-16T16:02:50;6.63;;;3.13;;
15645;SDS011;7922;43.622;1.476;2022-10-16T16:05:16;5.03;;;2.90;;
15645;SDS011;7922;43.622;1.476;2022-10-16T16:07:42;6.30;;;2.90;;
15645;SDS011;7922;43.622;1.476;2022-10-16T16:10:09;7.97;;;3.23;;
15645;SDS011;7922;43.622;1.476;2022-10-16T16:12:35;10.40;;;3.43;;
15645;SDS011;7922;43.622;1.476;2022-10-16T16:15:01;8.97;;;3.20;;
15645;SDS011;7922;43.622;1.476;2022-10-16T16:17:27;5.77;;;3.20;;
15645;SDS011;7922;43.622;1.476;2022-10-16T16:19:53;5.53;;;3.20;;
15645;SDS011;7922;43.622;1.476;2022-10-16T16:22:18;5.23;;;3.00;;
15645;SDS011;7922;43.622;1.476;2022-10-16T16:24:44;7.63;;;3.10;;
15645;SDS011;7922;43.622;1.476;2022-10-16T16:27:09;5.50;;;3.00;;
15645;SDS011;7922;43.622;1.476;2022-10-16T16:29:34;5.50;;;2.97;;
15645;SDS011;7922;43.622;1.476;2022-10-16T16:32:00;5.37;;;3.10;;
15645;SDS011;7922;43.622;1.476;2022-10-16T16:34:26;4.80;;;2.90;;
15645;SDS011;7922;43.622;1.476;2022-10-16T16:36:53;8.07;;;3.27;;
15645;SDS011;7922;43.622;1.476;2022-10-16T16:39:18;8.10;;;3.53;;
15645;SDS011;7922;43.622;1.476;2022-10-16T16:41:44;6.97;;;3.40;;
15645;SDS011;7922;43.622;1.476;2022-10-16T16:44:12;5.80;;;3.30;;
15645;SDS011;7922;43.622;1.476;2022-10-16T16:46:38;5.20;;;3.50;;
15645;SDS011;7922;43.622;1.476;2022-10-16T16:49:05;6.53;;;3.40;;
15645;SDS011;7922;43.622;1.476;2022-10-16T16:51:31;8.83;;;3.67;;
15645;SDS011;7922;43.622;1.476;2022-10-16T16:53:56;10.60;;;3.50;;
15645;SDS011;7922;43.622;1.476;2022-10-16T16:56:22;8.20;;;3.33;;
15645;SDS011;7922;43.622;1.476;2022-10-16T16:58:49;6.43;;;3.23;;
15645;SDS011;7922;43.622;1.476;2022-10-16T17:01:15;5.90;;;3.03;;
15645;SDS011;7922;43.622;1.476;2022-10-16T17:03:42;9.33;;;3.40;;
15645;SDS011;7922;43.622;1.476;2022-10-16T17:06:14;5.00;;;3.50;;